createdAt,value
2023-05-19T00:02:09.405Z,2.40
2023-05-19T00:05:12.944Z,2.12
2023-05-19T00:08:16.661Z,2.05
2023-05-19T00:11:18.419Z,2.30
2023-05-19T00:14:20.192Z,2.55
2023-05-19T00:17:21.910Z,2.60
2023-05-19T00:20:23.386Z,2.80
2023-05-19T00:23:24.977Z,2.25
2023-05-19T00:26:28.208Z,2.40
2023-05-19T00:29:29.798Z,2.15
2023-05-19T00:32:31.436Z,2.60
2023-05-19T00:35:33.098Z,2.60
2023-05-19T00:38:35.418Z,2.10
2023-05-19T00:41:37.080Z,2.58
2023-05-19T00:44:40.713Z,2.65
2023-05-19T00:47:42.385Z,2.67
2023-05-19T00:50:44.808Z,2.87
2023-05-19T00:53:49.331Z,2.58
2023-05-19T00:56:51.142Z,2.83
2023-05-19T00:59:52.775Z,2.58
2023-05-19T01:02:54.625Z,2.90
2023-05-19T01:05:56.422Z,2.53
2023-05-19T01:08:58.253Z,2.70
2023-05-19T01:12:02.043Z,2.90
2023-05-19T01:15:04.148Z,2.50
2023-05-19T01:18:11.251Z,2.75
2023-05-19T01:21:31.528Z,2.67
2023-05-19T01:24:45.426Z,2.95
2023-05-19T01:27:46.928Z,2.80
2023-05-19T01:30:55.603Z,2.62
2023-05-19T01:33:57.582Z,2.50
2023-05-19T01:37:00.823Z,2.67
2023-05-19T01:40:02.463Z,3.10
2023-05-19T01:43:04.073Z,2.97
2023-05-19T01:46:05.693Z,2.85
2023-05-19T01:49:07.815Z,3.28
2023-05-19T01:52:09.403Z,2.85
2023-05-19T01:55:11.157Z,2.87
2023-05-19T01:58:20.273Z,2.85
2023-05-19T02:01:27.926Z,3.17
2023-05-19T02:04:40.038Z,3.17
2023-05-19T02:07:44.391Z,3.33
2023-05-19T02:10:49.892Z,3.47
2023-05-19T02:13:54.087Z,3.45
2023-05-19T02:16:57.327Z,3.40
2023-05-19T02:19:58.879Z,3.40
2023-05-19T02:23:00.419Z,3.97
2023-05-19T02:26:02.600Z,2.90
2023-05-19T02:29:04.237Z,3.42
2023-05-19T02:32:06.129Z,3.67
2023-05-19T02:35:07.997Z,3.50
2023-05-19T02:38:09.988Z,3.40
2023-05-19T02:41:11.522Z,3.95
2023-05-19T02:44:13.137Z,4.30
2023-05-19T02:47:14.792Z,3.20
2023-05-19T02:50:16.326Z,3.58
2023-05-19T02:53:17.920Z,3.05
2023-05-19T02:56:19.506Z,3.10
2023-05-19T02:59:21.083Z,3.35
2023-05-19T03:02:22.660Z,3.15
2023-05-19T03:05:24.262Z,3.80
2023-05-19T03:08:25.907Z,3.83
2023-05-19T03:11:27.465Z,3.80
2023-05-19T03:14:29.616Z,3.17
2023-05-19T03:17:34.337Z,4.35
2023-05-19T03:20:36.061Z,4.22
2023-05-19T03:23:37.619Z,4.60
2023-05-19T03:26:39.245Z,5.20
2023-05-19T03:29:40.785Z,4.35
2023-05-19T03:32:42.492Z,13.02
2023-05-19T03:35:44.682Z,9.40
2023-05-19T03:38:46.306Z,4.60
2023-05-19T03:41:47.893Z,6.70
2023-05-19T03:44:49.606Z,5.85
2023-05-19T03:47:51.538Z,5.93
2023-05-19T03:50:53.229Z,5.95
2023-05-19T03:53:54.787Z,5.70
2023-05-19T03:56:56.507Z,6.82
2023-05-19T03:59:58.026Z,5.95
2023-05-19T04:03:00.562Z,5.87
2023-05-19T04:06:02.272Z,5.37
2023-05-19T04:09:05.247Z,4.03
2023-05-19T04:12:06.952Z,4.32
2023-05-19T04:15:11.433Z,4.03
2023-05-19T04:18:13.564Z,3.53
2023-05-19T04:21:15.122Z,3.65
2023-05-19T04:24:16.690Z,3.67
2023-05-19T04:27:18.337Z,4.22
2023-05-19T04:30:22.723Z,3.75
2023-05-19T04:33:24.782Z,3.40
2023-05-19T04:36:26.476Z,3.72
2023-05-19T04:39:28.049Z,3.62
2023-05-19T04:42:30.858Z,3.40
2023-05-19T04:45:33.263Z,3.10
2023-05-19T04:48:34.922Z,3.60
2023-05-19T04:51:36.967Z,3.03
2023-05-19T04:54:39.035Z,3.42
2023-05-19T04:57:40.617Z,3.00
2023-05-19T05:00:42.199Z,3.97
2023-05-19T05:03:44.509Z,3.50
2023-05-19T05:06:48.928Z,3.58
2023-05-19T05:09:50.575Z,3.72
2023-05-19T05:12:52.257Z,3.03
2023-05-19T05:15:54.292Z,3.22
2023-05-19T05:18:56.154Z,3.10
2023-05-19T05:21:57.969Z,3.55
2023-05-19T05:24:59.626Z,2.90
2023-05-19T05:28:05.176Z,2.60
2023-05-19T05:31:06.957Z,2.75
2023-05-19T05:34:08.625Z,2.47
2023-05-19T05:37:10.272Z,3.45
2023-05-19T05:40:12.355Z,3.10
2023-05-19T05:43:13.946Z,2.60
2023-05-19T05:46:15.569Z,2.80
2023-05-19T05:49:17.393Z,2.53
2023-05-19T05:52:21.191Z,2.67
2023-05-19T05:55:23.006Z,2.75
2023-05-19T05:58:24.586Z,3.30
2023-05-19T06:01:26.154Z,3.00
2023-05-19T06:04:27.848Z,3.47
2023-05-19T06:07:29.503Z,3.37
2023-05-19T06:10:31.285Z,3.00
2023-05-19T06:13:33.113Z,2.80
2023-05-19T06:16:34.779Z,3.62
2023-05-19T06:19:36.417Z,3.17
2023-05-19T06:22:38.014Z,3.20
2023-05-19T06:25:39.609Z,3.45
2023-05-19T06:28:42.621Z,3.65
2023-05-19T06:31:44.498Z,3.47
2023-05-19T06:34:54.080Z,3.70
2023-05-19T06:37:58.703Z,3.37
2023-05-19T06:41:00.428Z,3.62
2023-05-19T06:44:02.002Z,3.45
2023-05-19T06:47:03.687Z,3.20
2023-05-19T06:50:05.376Z,3.35
2023-05-19T06:53:06.974Z,3.47
2023-05-19T06:56:08.634Z,2.83
2023-05-19T06:59:10.409Z,2.92
2023-05-19T07:02:12.187Z,2.60
2023-05-19T07:05:13.804Z,2.85
2023-05-19T07:08:15.363Z,2.58
2023-05-19T07:11:16.988Z,2.22
2023-05-19T07:14:18.530Z,2.47
2023-05-19T07:17:20.742Z,2.30
2023-05-19T07:20:22.372Z,2.10
2023-05-19T07:23:23.939Z,1.90
2023-05-19T07:26:26.453Z,2.20
2023-05-19T07:29:28.068Z,2.20
2023-05-19T07:32:29.614Z,2.45
2023-05-19T07:35:31.187Z,2.50
2023-05-19T07:38:34.814Z,2.50
2023-05-19T07:41:36.617Z,2.83
2023-05-19T07:44:38.262Z,2.20
2023-05-19T07:47:39.837Z,2.60
2023-05-19T07:50:41.475Z,2.40
2023-05-19T07:53:43.008Z,3.08
2023-05-19T07:56:44.586Z,2.50
2023-05-19T07:59:46.127Z,2.85
2023-05-19T08:02:47.876Z,2.55
2023-05-19T08:05:49.585Z,3.00
2023-05-19T08:08:52.065Z,3.00
2023-05-19T08:11:54.217Z,2.70
2023-05-19T08:14:55.948Z,2.42
2023-05-19T08:17:57.517Z,2.75
2023-05-19T08:20:59.156Z,2.62
2023-05-19T08:24:01.869Z,2.40
2023-05-19T08:27:04.902Z,2.30
2023-05-19T08:30:07.161Z,2.47
2023-05-19T08:33:08.729Z,2.47
2023-05-19T08:36:10.587Z,2.60
2023-05-19T08:39:13.657Z,2.55
2023-05-19T08:42:15.275Z,2.40
2023-05-19T08:45:17.024Z,2.70
2023-05-19T08:48:19.319Z,2.12
2023-05-19T08:51:25.642Z,2.37
2023-05-19T08:54:30.312Z,2.70
2023-05-19T08:57:32.992Z,2.70
2023-05-19T09:00:35.011Z,2.35
2023-05-19T09:03:38.499Z,2.37
2023-05-19T09:06:42.486Z,2.12
2023-05-19T09:09:44.181Z,2.72
2023-05-19T09:12:47.674Z,2.53
2023-05-19T09:15:50.412Z,2.17
2023-05-19T09:18:58.259Z,2.53
2023-05-19T09:22:01.241Z,3.08
2023-05-19T09:25:02.810Z,2.20
2023-05-19T09:28:04.383Z,2.12
2023-05-19T09:31:06.761Z,2.28
2023-05-19T09:34:14.437Z,1.70
2023-05-19T09:37:16.083Z,1.90
2023-05-19T09:40:18.034Z,2.00
2023-05-19T09:43:19.727Z,1.70
2023-05-19T09:46:26.747Z,2.10
2023-05-19T09:49:32.962Z,2.00
2023-05-19T09:52:43.852Z,1.80
2023-05-19T09:55:45.668Z,1.85
2023-05-19T09:58:48.739Z,1.75
2023-05-19T10:01:50.567Z,2.30
2023-05-19T10:04:53.119Z,2.10
2023-05-19T10:07:55.232Z,1.90
2023-05-19T10:10:57.188Z,2.17
2023-05-19T10:13:59.042Z,2.20
2023-05-19T10:17:00.785Z,2.03
2023-05-19T10:20:02.546Z,2.92
2023-05-19T10:23:04.276Z,1.70
2023-05-19T10:26:06.910Z,1.90
2023-05-19T10:29:08.545Z,2.00
2023-05-19T10:32:24.795Z,2.78
2023-05-19T10:35:29.961Z,2.40
2023-05-19T10:38:56.838Z,2.28
2023-05-19T10:42:17.467Z,2.15
2023-05-19T10:45:21.140Z,2.25
2023-05-19T10:48:23.358Z,2.60
2023-05-19T10:51:31.981Z,2.20
2023-05-19T10:54:40.944Z,2.60
2023-05-19T10:57:53.372Z,2.40
2023-05-19T11:01:00.490Z,2.30
2023-05-19T11:04:12.318Z,2.28
2023-05-19T11:07:21.012Z,2.50
2023-05-19T11:10:23.038Z,2.97
2023-05-19T11:13:28.458Z,2.30
2023-05-19T11:16:31.787Z,2.70
2023-05-19T11:19:34.759Z,2.47
2023-05-19T11:22:37.154Z,2.80
2023-05-19T11:25:44.834Z,2.45
2023-05-19T11:28:47.631Z,2.47
2023-05-19T11:31:49.394Z,2.50
2023-05-19T11:34:51.162Z,2.50
2023-05-19T11:37:54.239Z,2.35
2023-05-19T11:40:56.457Z,2.72
2023-05-19T11:43:58.025Z,2.35
2023-05-19T11:47:00.232Z,2.47
2023-05-19T11:50:01.844Z,2.72
2023-05-19T11:53:04.106Z,2.50
2023-05-19T11:56:06.271Z,2.12
2023-05-19T11:59:08.480Z,2.83
2023-05-19T12:02:13.992Z,2.40
2023-05-19T12:05:23.070Z,2.40
2023-05-19T12:08:25.098Z,2.12
2023-05-19T12:11:28.624Z,2.10
2023-05-19T12:14:31.343Z,2.17
2023-05-19T12:17:32.937Z,2.00
2023-05-19T12:20:36.150Z,2.47
2023-05-19T12:23:38.588Z,1.83
2023-05-19T12:26:40.676Z,2.25
2023-05-19T12:29:42.270Z,2.20
2023-05-19T12:32:44.126Z,1.80
2023-05-19T12:35:46.294Z,2.15
2023-05-19T12:38:48.499Z,2.28
2023-05-19T12:41:50.008Z,1.87
2023-05-19T12:44:52.619Z,1.95
2023-05-19T12:47:54.571Z,2.17
2023-05-19T12:50:56.683Z,2.08
2023-05-19T12:53:58.291Z,1.60
2023-05-19T12:56:59.863Z,2.00
2023-05-19T13:00:02.287Z,2.22
2023-05-19T13:03:05.676Z,1.83
2023-05-19T13:06:07.620Z,2.08
2023-05-19T13:09:09.168Z,2.00
2023-05-19T13:12:10.729Z,2.15
2023-05-19T13:15:12.242Z,1.98
2023-05-19T13:18:14.268Z,2.50
2023-05-19T13:21:15.897Z,1.90
2023-05-19T13:24:17.416Z,2.10
2023-05-19T13:27:18.958Z,2.50
2023-05-19T13:30:21.264Z,2.30
2023-05-19T13:33:22.804Z,2.40
2023-05-19T13:36:25.463Z,2.42
2023-05-19T13:39:27.034Z,1.92
2023-05-19T13:42:28.590Z,2.30
2023-05-19T13:45:30.235Z,1.80
2023-05-19T13:48:31.850Z,2.15
2023-05-19T13:51:33.381Z,2.17
2023-05-19T13:54:35.036Z,2.10
2023-05-19T13:57:37.049Z,2.22
2023-05-19T14:00:38.672Z,2.20
2023-05-19T14:03:40.252Z,2.08
2023-05-19T14:06:42.085Z,2.45
2023-05-19T14:09:43.663Z,2.25
2023-05-19T14:13:12.211Z,2.33
2023-05-19T14:16:06.806Z,2.80
2023-05-19T14:19:08.602Z,2.80
2023-05-19T14:22:10.277Z,2.78
2023-05-19T14:25:11.861Z,3.00
2023-05-19T14:28:13.501Z,2.90
2023-05-19T14:31:15.265Z,2.70
2023-05-19T14:34:20.957Z,3.05
2023-05-19T14:37:22.635Z,3.00
2023-05-19T14:40:24.162Z,3.78
2023-05-19T14:43:25.802Z,2.78
2023-05-19T14:46:27.382Z,3.67
2023-05-19T14:49:28.933Z,3.40
2023-05-19T14:52:30.521Z,3.50
2023-05-19T14:55:32.263Z,3.33
2023-05-19T14:58:33.836Z,3.20
2023-05-19T15:01:35.413Z,3.20
2023-05-19T15:04:36.913Z,4.93
2023-05-19T15:07:38.472Z,3.67
2023-05-19T15:10:39.978Z,4.32
2023-05-19T15:13:41.519Z,3.45
2023-05-19T15:16:43.068Z,3.20
2023-05-19T15:19:44.713Z,3.45
2023-05-19T15:22:46.322Z,3.50
2023-05-19T15:25:47.902Z,3.25
2023-05-19T15:28:49.432Z,3.33
2023-05-19T15:31:51.813Z,2.87
2023-05-19T15:34:53.448Z,3.28
2023-05-19T15:37:54.950Z,3.28
2023-05-19T15:40:56.524Z,3.10
2023-05-19T15:44:00.427Z,3.30
2023-05-19T15:47:02.396Z,2.80
2023-05-19T15:50:04.077Z,3.22
2023-05-19T15:53:07.773Z,3.10
2023-05-19T15:56:09.372Z,2.97
2023-05-19T15:59:10.930Z,3.35
2023-05-19T16:02:12.493Z,3.05
2023-05-19T16:05:14.091Z,2.90
2023-05-19T16:08:15.663Z,2.92
2023-05-19T16:11:18.340Z,3.20
2023-05-19T16:14:19.904Z,3.10
2023-05-19T16:17:21.777Z,3.50
2023-05-19T16:20:28.238Z,3.30
2023-05-19T16:23:29.945Z,3.33
2023-05-19T16:26:31.543Z,3.53
2023-05-19T16:29:33.150Z,3.62
2023-05-19T16:32:34.767Z,3.90
2023-05-19T16:35:36.397Z,4.80
2023-05-19T16:38:38.007Z,6.40
2023-05-19T16:41:39.562Z,3.28
2023-05-19T16:44:42.593Z,4.25
2023-05-19T16:47:44.512Z,4.28
2023-05-19T16:50:47.786Z,3.12
2023-05-19T16:53:49.303Z,3.08
2023-05-19T16:56:51.349Z,2.90
2023-05-19T16:59:52.877Z,3.05
2023-05-19T17:02:54.515Z,3.00
2023-05-19T17:05:56.169Z,3.20
2023-05-19T17:08:57.689Z,3.70
2023-05-19T17:11:59.198Z,3.47
2023-05-19T17:15:00.787Z,3.60
2023-05-19T17:18:02.352Z,3.95
2023-05-19T17:21:05.396Z,3.78
2023-05-19T17:24:07.582Z,4.25
2023-05-19T17:27:09.296Z,3.70
2023-05-19T17:30:11.149Z,4.65
2023-05-19T17:33:13.061Z,4.62
2023-05-19T17:36:14.731Z,6.20
2023-05-19T17:39:16.562Z,5.35
2023-05-19T17:42:18.073Z,5.82
2023-05-19T17:45:19.692Z,6.28
2023-05-19T17:48:21.267Z,5.05
2023-05-19T17:51:22.901Z,5.25
2023-05-19T17:54:26.282Z,5.10
2023-05-19T17:57:30.874Z,4.82
2023-05-19T18:00:33.232Z,5.15
2023-05-19T18:03:35.215Z,4.87
2023-05-19T18:06:37.332Z,5.20
2023-05-19T18:09:40.986Z,5.10
2023-05-19T18:12:42.556Z,4.97
2023-05-19T18:15:44.158Z,5.28
2023-05-19T18:18:50.413Z,5.43
2023-05-19T18:21:52.245Z,5.87
2023-05-19T18:24:53.905Z,5.35
2023-05-19T18:27:58.513Z,5.47
2023-05-19T18:31:00.572Z,6.35
2023-05-19T18:34:02.760Z,6.50
2023-05-19T18:37:04.429Z,5.78
2023-05-19T18:40:06.936Z,5.65
2023-05-19T18:43:08.500Z,5.57
2023-05-19T18:46:10.398Z,6.30
2023-05-19T18:49:12.138Z,5.40
2023-05-19T18:52:13.695Z,5.87
2023-05-19T18:55:15.434Z,6.78
2023-05-19T18:58:17.982Z,6.32
2023-05-19T19:01:19.554Z,6.05
2023-05-19T19:04:21.989Z,6.22
2023-05-19T19:07:24.326Z,6.32
2023-05-19T19:10:26.005Z,5.95
2023-05-19T19:13:28.158Z,5.75
2023-05-19T19:16:29.742Z,5.78
2023-05-19T19:19:31.688Z,5.95
2023-05-19T19:22:33.483Z,6.15
2023-05-19T19:25:35.440Z,6.87
2023-05-19T19:28:37.145Z,7.93
2023-05-19T19:31:38.851Z,7.97
2023-05-19T19:34:40.440Z,10.02
2023-05-19T19:37:42.028Z,10.93
2023-05-19T19:40:43.700Z,10.95
2023-05-19T19:43:45.353Z,12.88
2023-05-19T19:46:46.965Z,13.68
2023-05-19T19:49:49.292Z,13.20
2023-05-19T19:52:50.964Z,13.80
2023-05-19T19:55:56.088Z,12.37
2023-05-19T19:58:59.102Z,12.18
2023-05-19T20:02:01.464Z,12.55
2023-05-19T20:05:03.791Z,11.40
2023-05-19T20:08:05.669Z,11.98
2023-05-19T20:11:07.401Z,11.75
2023-05-19T20:14:09.109Z,11.60
2023-05-19T20:17:10.670Z,10.63
2023-05-19T20:20:12.476Z,12.15
2023-05-19T20:23:16.283Z,12.82
2023-05-19T20:26:17.920Z,12.57
2023-05-19T20:29:19.633Z,11.32
2023-05-19T20:32:21.205Z,10.85
2023-05-19T20:35:22.944Z,9.95
2023-05-19T20:38:24.484Z,10.50
2023-05-19T20:41:26.023Z,10.82
2023-05-19T20:44:27.608Z,11.35
2023-05-19T20:47:30.569Z,10.55
2023-05-19T20:50:32.468Z,11.00
2023-05-19T20:53:34.157Z,10.63
2023-05-19T20:56:35.863Z,9.55
2023-05-19T20:59:37.400Z,8.80
2023-05-19T21:02:39.010Z,8.77
2023-05-19T21:05:40.542Z,7.37
2023-05-19T21:08:42.161Z,7.20
2023-05-19T21:11:43.775Z,7.15
2023-05-19T21:14:45.315Z,7.30
2023-05-19T21:17:47.266Z,6.68
2023-05-19T21:20:48.879Z,7.43
2023-05-19T21:23:50.487Z,7.72
2023-05-19T21:26:52.154Z,7.43
2023-05-19T21:29:54.276Z,7.93
2023-05-19T21:32:55.931Z,8.82
2023-05-19T21:35:59.192Z,7.90
2023-05-19T21:39:00.869Z,8.98
2023-05-19T21:42:02.671Z,9.80
2023-05-19T21:45:04.416Z,9.73
2023-05-19T21:48:06.195Z,8.98
2023-05-19T21:51:07.820Z,8.77
2023-05-19T21:54:09.346Z,9.40
2023-05-19T21:57:12.627Z,8.77
2023-05-19T22:00:14.951Z,9.43
2023-05-19T22:03:16.789Z,9.40
2023-05-19T22:06:18.349Z,9.50
2023-05-19T22:09:19.902Z,9.23
2023-05-19T22:12:21.571Z,9.65
2023-05-19T22:15:23.183Z,9.68
2023-05-19T22:18:24.807Z,8.95
2023-05-19T22:21:26.316Z,9.32
2023-05-19T22:24:27.916Z,9.18
2023-05-19T22:27:29.564Z,9.27
2023-05-19T22:30:31.139Z,8.60
2023-05-19T22:33:33.314Z,8.23
2023-05-19T22:36:34.919Z,9.00
2023-05-19T22:39:37.054Z,10.07
2023-05-19T22:42:38.617Z,10.48
2023-05-19T22:45:40.477Z,10.88
2023-05-19T22:48:42.034Z,9.98
2023-05-19T22:51:43.614Z,10.32
2023-05-19T22:54:45.117Z,10.20
2023-05-19T22:57:46.698Z,9.65
2023-05-19T23:00:48.297Z,10.68
2023-05-19T23:03:49.929Z,9.88
2023-05-19T23:06:51.607Z,10.25
2023-05-19T23:09:53.161Z,10.57
2023-05-19T23:12:54.935Z,10.70
2023-05-19T23:15:56.523Z,9.85
2023-05-19T23:18:58.185Z,9.23
2023-05-19T23:21:59.771Z,9.50
2023-05-19T23:25:05.698Z,8.95
2023-05-19T23:28:10.231Z,8.05
2023-05-19T23:31:11.853Z,8.38
2023-05-19T23:34:13.431Z,7.78
2023-05-19T23:37:15.167Z,7.32
2023-05-19T23:40:16.846Z,8.23
2023-05-19T23:43:18.388Z,8.38
2023-05-19T23:46:19.989Z,7.60
2023-05-19T23:49:21.619Z,7.43
2023-05-19T23:52:23.167Z,6.87
2023-05-19T23:55:24.802Z,7.50
2023-05-19T23:58:26.391Z,7.15
